Time;durP1;ratioP1;P1;durP2;ratioP2;P2;SDS_P1;SDS_P2;PMS_P1;PMS_P2;Temp;Humidity;BMP_temperature;BMP_pressure;BME280_temperature;BME280_humidity;BME280_pressure;Samples;Min_cycle;Max_cycle;Signal;HPM_P1;HPM_P2
2021/10/10 00:00:18;;;;;;;35.53;24.10;;;4.00;99.90;;;;;;2113651;28;20027;-73
2021/10/10 00:01:19;;;;;;;37.53;24.40;;;4.00;99.90;;;;;;2112782;28;20489;-72
2021/10/10 00:02:20;;;;;;;37.00;24.80;;;3.90;99.90;;;;;;2114219;28;20038;-72
2021/10/10 00:03:20;;;;;;;35.50;24.13;;;3.90;99.90;;;;;;2114409;28;20039;-72
2021/10/10 00:04:21;;;;;;;37.10;24.10;;;3.90;99.90;;;;;;2114449;28;20042;-73
2021/10/10 00:05:21;;;;;;;36.38;23.88;;;3.90;99.90;;;;;;2114155;28;20110;-73
2021/10/10 00:06:22;;;;;;;38.33;24.00;;;3.90;99.90;;;;;;2114440;28;20020;-73
2021/10/10 00:07:23;;;;;;;36.20;23.90;;;3.90;99.90;;;;;;2114379;28;20023;-73
2021/10/10 00:08:23;;;;;;;38.10;23.50;;;3.90;99.90;;;;;;2114350;28;20390;-73
2021/10/10 00:09:24;;;;;;;36.67;23.52;;;3.80;99.90;;;;;;2114367;28;20032;-73
2021/10/10 00:10:24;;;;;;;32.78;22.20;;;3.80;99.90;;;;;;2113537;28;20050;-72
2021/10/10 00:11:25;;;;;;;33.58;22.98;;;3.80;99.90;;;;;;2104344;28;20035;-72
2021/10/10 00:12:26;;;;;;;34.28;22.63;;;3.80;99.90;;;;;;2113566;28;20391;-72
2021/10/10 00:13:26;;;;;;;35.00;23.33;;;3.80;99.90;;;;;;2113687;28;20172;-72
2021/10/10 00:14:27;;;;;;;35.03;23.55;;;3.80;99.90;;;;;;2113811;28;20169;-73
2021/10/10 00:15:28;;;;;;;32.42;22.00;;;3.80;99.90;;;;;;2114283;28;20157;-72
2021/10/10 00:16:29;;;;;;;33.63;22.23;;;3.80;99.90;;;;;;2114363;28;20046;-72
2021/10/10 00:17:29;;;;;;;31.98;21.98;;;3.80;99.90;;;;;;2114285;28;20031;-72
2021/10/10 00:18:30;;;;;;;32.97;21.90;;;3.80;99.90;;;;;;2114012;28;20095;-72
2021/10/10 00:19:31;;;;;;;33.38;21.67;;;3.70;99.90;;;;;;2114192;28;20478;-72
2021/10/10 00:20:31;;;;;;;31.30;21.75;;;3.70;99.90;;;;;;2114158;28;20522;-72
2021/10/10 00:21:32;;;;;;;33.80;22.80;;;3.80;99.90;;;;;;2113271;28;20016;-72
2021/10/10 00:22:33;;;;;;;34.65;22.55;;;3.80;99.90;;;;;;2113512;28;20841;-72
2021/10/10 00:23:34;;;;;;;34.53;22.38;;;3.80;99.90;;;;;;2113540;28;20429;-72
2021/10/10 00:24:34;;;;;;;31.75;22.13;;;3.70;99.90;;;;;;2114187;28;20084;-72
2021/10/10 00:25:35;;;;;;;36.38;23.17;;;3.70;99.90;;;;;;2113588;28;20074;-72
2021/10/10 00:26:35;;;;;;;32.58;22.02;;;3.70;99.90;;;;;;2113587;28;20471;-72
2021/10/10 00:27:37;;;;;;;34.67;22.67;;;3.70;99.90;;;;;;2114222;28;20047;-72
2021/10/10 00:28:37;;;;;;;34.15;22.65;;;3.70;99.90;;;;;;2114234;28;20023;-72
2021/10/10 00:29:38;;;;;;;34.00;22.10;;;3.70;99.90;;;;;;2114178;28;20394;-72
2021/10/10 00:30:38;;;;;;;34.58;21.90;;;3.70;99.90;;;;;;2114174;28;20039;-72
2021/10/10 00:31:39;;;;;;;33.83;22.42;;;3.70;99.90;;;;;;2113571;28;20016;-72
2021/10/10 00:32:40;;;;;;;31.50;21.60;;;3.70;99.90;;;;;;2114292;28;20421;-72
2021/10/10 00:33:40;;;;;;;36.38;22.27;;;3.60;99.90;;;;;;2114768;28;20108;-72
2021/10/10 00:34:41;;;;;;;31.65;21.63;;;3.60;99.90;;;;;;2114801;28;20489;-73
2021/10/10 00:35:41;;;;;;;36.50;22.23;;;3.60;99.90;;;;;;2105713;28;20039;-72
2021/10/10 00:36:42;;;;;;;35.92;22.75;;;3.60;99.90;;;;;;2105821;28;20020;-72
2021/10/10 00:37:42;;;;;;;32.85;22.55;;;3.60;99.90;;;;;;2114561;28;20023;-72
2021/10/10 00:38:43;;;;;;;33.03;21.92;;;3.60;99.90;;;;;;2114327;28;20485;-72
2021/10/10 00:39:43;;;;;;;34.22;22.42;;;3.60;99.90;;;;;;2113215;28;20028;-72
2021/10/10 00:40:45;;;;;;;33.47;21.88;;;3.60;99.90;;;;;;2113296;28;20106;-71
2021/10/10 00:41:46;;;;;;;33.38;22.48;;;3.60;99.90;;;;;;2112636;28;20634;-73
2021/10/10 00:42:46;;;;;;;33.22;22.80;;;3.50;99.90;;;;;;2113373;28;20069;-72
2021/10/10 00:43:47;;;;;;;34.65;22.55;;;3.50;99.90;;;;;;2113457;28;20103;-72
2021/10/10 00:44:48;;;;;;;35.17;22.60;;;3.50;99.90;;;;;;2113945;28;20031;-71
2021/10/10 00:45:51;;;;;;;33.45;21.90;;;3.50;99.90;;;;;;2113906;28;20077;-72
2021/10/10 00:46:53;;;;;;;33.70;22.15;;;3.50;99.90;;;;;;2114085;28;20039;-72
2021/10/10 00:47:53;;;;;;;33.90;22.40;;;3.50;99.90;;;;;;2114031;28;20113;-72
2021/10/10 00:48:54;;;;;;;35.30;22.98;;;3.50;99.90;;;;;;2114010;28;20491;-72
2021/10/10 00:49:55;;;;;;;34.55;21.92;;;3.50;99.90;;;;;;2113906;28;20102;-72
2021/10/10 00:50:55;;;;;;;34.65;22.23;;;3.50;99.90;;;;;;2113972;28;20106;-71
2021/10/10 00:51:58;;;;;;;35.72;22.90;;;3.50;99.90;;;;;;2112992;28;20050;-72
2021/10/10 00:53:01;;;;;;;33.00;21.60;;;3.50;99.90;;;;;;2113884;28;20027;-72
2021/10/10 00:54:04;;;;;;;32.60;21.38;;;3.50;99.90;;;;;;2114116;28;20035;-71
2021/10/10 00:55:04;;;;;;;31.98;21.63;;;3.50;99.90;;;;;;2114145;28;20027;-72
2021/10/10 00:56:06;;;;;;;32.97;22.05;;;3.50;99.90;;;;;;2114086;28;20015;-72
2021/10/10 00:57:08;;;;;;;35.80;21.42;;;3.50;99.90;;;;;;2114222;28;20077;-72
2021/10/10 00:58:11;;;;;;;35.55;22.67;;;3.40;99.90;;;;;;2114461;28;20121;-72
2021/10/10 00:59:13;;;;;;;33.00;21.17;;;3.50;99.90;;;;;;2114399;28;20479;-72
2021/10/10 01:00:14;;;;;;;34.42;22.33;;;3.40;99.90;;;;;;2114867;28;20032;-72
2021/10/10 01:01:16;;;;;;;33.83;21.90;;;3.40;99.90;;;;;;2114153;28;20106;-72
2021/10/10 01:02:17;;;;;;;31.95;21.35;;;3.40;99.90;;;;;;2113973;27;20069;-71
2021/10/10 01:03:17;;;;;;;33.75;22.23;;;3.40;99.90;;;;;;2113974;28;20129;-71
2021/10/10 01:04:19;;;;;;;32.30;21.77;;;3.40;99.90;;;;;;2113851;28;20490;-71
2021/10/10 01:05:19;;;;;;;32.70;21.33;;;3.40;99.90;;;;;;2113221;28;20038;-71
2021/10/10 01:06:20;;;;;;;32.58;22.02;;;3.40;99.90;;;;;;2113142;28;20027;-71
2021/10/10 01:07:21;;;;;;;32.58;21.50;;;3.40;99.90;;;;;;2113818;28;20027;-71
2021/10/10 01:08:22;;;;;;;32.83;21.83;;;3.40;99.90;;;;;;2113811;28;20027;-71
2021/10/10 01:09:22;;;;;;;31.95;21.27;;;3.40;99.90;;;;;;2113441;28;20047;-71
2021/10/10 01:10:23;;;;;;;34.00;21.75;;;3.30;99.90;;;;;;2113306;28;20725;-72
2021/10/10 01:11:27;;;;;;;33.70;21.75;;;3.30;99.90;;;;;;2113144;28;20028;-71
2021/10/10 01:12:28;;;;;;;33.33;21.90;;;3.30;99.90;;;;;;2113218;28;20031;-71
2021/10/10 01:13:28;;;;;;;34.35;22.65;;;3.30;99.90;;;;;;2113239;28;20430;-71
2021/10/10 01:14:29;;;;;;;35.03;23.23;;;3.30;99.90;;;;;;2113408;28;20036;-72
2021/10/10 01:15:30;;;;;;;34.65;23.10;;;3.30;99.90;;;;;;2113805;28;20513;-71
2021/10/10 01:16:31;;;;;;;34.58;23.23;;;3.30;99.90;;;;;;2114278;28;20392;-72
2021/10/10 01:17:32;;;;;;;35.45;22.98;;;3.30;99.90;;;;;;2114065;28;20027;-71
2021/10/10 01:18:33;;;;;;;35.47;22.77;;;3.30;99.90;;;;;;2113529;28;20858;-71
2021/10/10 01:19:34;;;;;;;34.90;23.80;;;3.20;99.90;;;;;;2113341;28;20468;-72
2021/10/10 01:20:46;;;;;;;35.78;23.38;;;3.20;99.90;;;;;;2113704;28;20027;-71
2021/10/10 01:21:47;;;;;;;35.00;23.30;;;3.20;99.90;;;;;;2112886;28;20023;-71
2021/10/10 01:22:47;;;;;;;34.35;22.95;;;3.20;99.90;;;;;;2113083;28;20044;-72
2021/10/10 01:23:48;;;;;;;33.40;22.73;;;3.20;99.90;;;;;;2113537;28;20028;-71
2021/10/10 01:24:48;;;;;;;35.47;23.85;;;3.20;99.90;;;;;;2113879;28;20056;-71
2021/10/10 01:25:50;;;;;;;34.63;23.40;;;3.20;99.90;;;;;;2113812;28;20086;-71
2021/10/10 01:26:50;;;;;;;34.20;23.20;;;3.20;99.90;;;;;;2113799;28;20194;-71
2021/10/10 01:27:51;;;;;;;36.63;23.20;;;3.20;99.90;;;;;;2104782;28;20028;-71
2021/10/10 01:28:52;;;;;;;36.95;24.00;;;3.20;99.90;;;;;;2104879;28;20106;-72
2021/10/10 01:29:52;;;;;;;35.92;24.20;;;3.20;99.90;;;;;;2113840;28;20043;-71
2021/10/10 01:30:53;;;;;;;37.50;25.35;;;3.20;99.90;;;;;;2113735;28;20067;-71
2021/10/10 01:31:53;;;;;;;36.22;24.88;;;3.20;99.90;;;;;;2112739;28;20031;-72
2021/10/10 01:32:57;;;;;;;37.85;24.30;;;3.20;99.90;;;;;;2113761;28;20032;-72
2021/10/10 01:33:57;;;;;;;34.55;23.23;;;3.20;99.90;;;;;;2113914;28;20378;-71
2021/10/10 01:34:58;;;;;;;37.10;24.55;;;3.20;99.90;;;;;;2113956;28;20557;-71
2021/10/10 01:35:59;;;;;;;37.65;24.55;;;3.20;99.90;;;;;;2113407;28;20467;-71
2021/10/10 01:37:00;;;;;;;37.85;24.10;;;3.20;99.90;;;;;;2113778;28;20031;-71
2021/10/10 01:38:00;;;;;;;38.67;24.23;;;3.20;99.90;;;;;;2113675;28;20035;-71
2021/10/10 01:39:02;;;;;;;34.53;23.70;;;3.20;99.90;;;;;;2113671;28;20023;-72
2021/10/10 01:40:03;;;;;;;36.53;24.17;;;3.20;99.90;;;;;;2113779;28;20432;-71
2021/10/10 01:41:03;;;;;;;36.15;23.80;;;3.20;99.90;;;;;;2113523;28;20024;-71
2021/10/10 01:42:04;;;;;;;35.55;23.60;;;3.20;99.90;;;;;;2112909;28;20475;-72
2021/10/10 01:43:05;;;;;;;37.17;23.27;;;3.20;99.90;;;;;;2113907;28;20024;-71
2021/10/10 01:44:15;;;;;;;34.88;22.98;;;3.10;99.90;;;;;;2113665;28;20394;-71
2021/10/10 01:45:18;;;;;;;32.92;22.75;;;3.10;99.90;;;;;;2113762;28;20028;-71
2021/10/10 01:46:18;;;;;;;32.63;23.08;;;3.10;99.90;;;;;;2113107;28;20046;-70
2021/10/10 01:47:19;;;;;;;36.72;23.35;;;3.10;99.90;;;;;;2113118;28;20024;-71
2021/10/10 01:48:20;;;;;;;34.97;23.50;;;3.10;99.90;;;;;;2113133;28;20487;-71
2021/10/10 01:49:21;;;;;;;34.97;23.40;;;3.10;99.90;;;;;;2113136;28;20031;-71
2021/10/10 01:50:22;;;;;;;36.13;22.55;;;3.10;99.90;;;;;;2113713;28;20020;-70
2021/10/10 01:51:23;;;;;;;36.15;22.73;;;3.10;99.90;;;;;;2112950;28;20032;-71
2021/10/10 01:52:23;;;;;;;33.33;22.38;;;3.10;99.90;;;;;;2113737;28;20043;-71
2021/10/10 01:53:24;;;;;;;34.13;22.30;;;3.10;99.90;;;;;;2113803;28;20118;-71
2021/10/10 01:54:24;;;;;;;34.75;22.23;;;3.10;99.90;;;;;;2114764;28;20028;-71
2021/10/10 01:55:26;;;;;;;38.13;23.08;;;3.10;99.90;;;;;;2114779;28;20016;-71
2021/10/10 01:56:27;;;;;;;32.63;22.08;;;3.00;99.90;;;;;;2114708;28;20038;-71
2021/10/10 01:57:28;;;;;;;33.72;22.13;;;3.00;99.90;;;;;;2115369;28;20118;-71
2021/10/10 01:58:29;;;;;;;35.40;22.75;;;3.00;99.90;;;;;;2115418;28;20046;-71
2021/10/10 01:59:30;;;;;;;34.95;22.60;;;3.00;99.90;;;;;;2115415;28;20028;-71
2021/10/10 02:00:33;;;;;;;35.67;22.88;;;3.00;99.90;;;;;;2115236;28;20475;-71
2021/10/10 02:01:34;;;;;;;34.75;22.85;;;3.00;99.90;;;;;;2114379;28;20046;-71
2021/10/10 02:02:34;;;;;;;33.08;21.70;;;2.90;99.90;;;;;;2115240;28;20513;-71
2021/10/10 02:03:35;;;;;;;34.00;22.95;;;3.00;99.90;;;;;;2115332;28;20028;-71
2021/10/10 02:04:36;;;;;;;34.65;22.17;;;3.00;99.90;;;;;;2115374;28;20415;-71
2021/10/10 02:05:36;;;;;;;33.20;22.77;;;3.00;99.90;;;;;;2115126;28;20040;-70
2021/10/10 02:06:37;;;;;;;36.03;22.65;;;2.90;99.90;;;;;;2115207;28;20063;-70
2021/10/10 02:07:39;;;;;;;35.25;22.63;;;2.90;99.90;;;;;;2115344;28;20035;-71
2021/10/10 02:08:40;;;;;;;36.45;22.33;;;2.90;99.90;;;;;;2115179;28;20469;-71
2021/10/10 02:09:42;;;;;;;34.03;22.85;;;2.90;99.90;;;;;;2115229;28;20031;-71
2021/10/10 02:10:43;;;;;;;32.15;22.00;;;2.90;99.90;;;;;;2115253;28;20019;-71
2021/10/10 02:11:44;;;;;;;34.38;22.15;;;2.90;99.90;;;;;;2113655;28;20446;-70
2021/10/10 02:12:45;;;;;;;35.88;22.92;;;2.90;99.90;;;;;;2114587;28;20034;-70
2021/10/10 02:13:45;;;;;;;35.03;21.75;;;2.90;99.90;;;;;;2115144;28;20055;-71
2021/10/10 02:14:46;;;;;;;33.75;22.83;;;2.90;99.90;;;;;;2115154;28;20020;-71
2021/10/10 02:15:48;;;;;;;34.95;22.65;;;2.80;99.90;;;;;;2114842;28;20023;-71
2021/10/10 02:16:49;;;;;;;34.58;22.40;;;2.80;99.90;;;;;;2115071;28;20031;-71
2021/10/10 02:17:49;;;;;;;33.10;22.13;;;2.80;99.90;;;;;;2115093;28;20028;-71
2021/10/10 02:18:50;;;;;;;33.05;21.50;;;2.80;99.90;;;;;;2115187;28;20134;-70
2021/10/10 02:19:50;;;;;;;34.40;22.42;;;2.90;99.90;;;;;;2115141;28;20673;-71
2021/10/10 02:20:51;;;;;;;33.58;21.88;;;2.90;99.90;;;;;;2115304;28;20077;-71
2021/10/10 02:21:52;;;;;;;32.28;20.40;;;2.80;99.90;;;;;;2114367;28;20425;-71
2021/10/10 02:22:53;;;;;;;32.60;21.25;;;2.80;99.90;;;;;;2115253;28;20035;-71
2021/10/10 02:23:53;;;;;;;31.77;21.30;;;2.80;99.90;;;;;;2115105;28;20085;-71
2021/10/10 02:24:54;;;;;;;32.15;20.67;;;2.90;99.90;;;;;;2115189;28;20642;-71
2021/10/10 02:25:55;;;;;;;34.42;21.67;;;2.90;99.90;;;;;;2115145;28;20039;-70
2021/10/10 02:26:56;;;;;;;32.42;21.70;;;2.80;99.90;;;;;;2115028;28;20036;-71
2021/10/10 02:27:56;;;;;;;32.53;22.20;;;2.80;99.90;;;;;;2115059;28;20043;-71
2021/10/10 02:28:57;;;;;;;34.40;21.63;;;2.80;99.90;;;;;;2115227;28;20035;-71
2021/10/10 02:29:59;;;;;;;34.13;21.85;;;2.80;99.90;;;;;;2115117;28;20157;-71
2021/10/10 02:31:00;;;;;;;34.63;22.25;;;2.80;99.90;;;;;;2115304;28;20680;-71
2021/10/10 02:32:01;;;;;;;33.85;22.65;;;2.80;99.90;;;;;;2114232;28;20043;-71
2021/10/10 02:33:01;;;;;;;32.17;21.40;;;2.80;99.90;;;;;;2115228;28;20028;-71
2021/10/10 02:34:02;;;;;;;37.63;23.05;;;2.80;99.90;;;;;;2115152;28;20032;-71
2021/10/10 02:35:03;;;;;;;36.85;23.27;;;2.80;99.90;;;;;;2115066;28;20505;-71
2021/10/10 02:36:04;;;;;;;39.00;23.25;;;2.80;99.90;;;;;;2115167;28;20055;-71
2021/10/10 02:37:04;;;;;;;35.50;21.75;;;2.70;99.90;;;;;;2115018;28;20553;-71
2021/10/10 02:38:05;;;;;;;34.20;22.95;;;2.70;99.90;;;;;;2114952;28;20035;-71
2021/10/10 02:39:06;;;;;;;36.05;22.88;;;2.70;99.90;;;;;;2114956;28;20055;-71
2021/10/10 02:40:07;;;;;;;34.20;22.25;;;2.70;99.90;;;;;;2114969;27;20034;-71
2021/10/10 02:41:08;;;;;;;34.70;22.42;;;2.70;99.90;;;;;;2114594;28;20096;-71
2021/10/10 02:42:09;;;;;;;32.50;22.05;;;2.70;99.90;;;;;;2114504;28;20179;-71
2021/10/10 02:43:10;;;;;;;33.85;21.98;;;2.70;99.90;;;;;;2115004;28;20027;-71
2021/10/10 02:44:11;;;;;;;37.53;22.95;;;2.70;99.90;;;;;;2114949;28;20034;-71
2021/10/10 02:45:12;;;;;;;34.78;21.70;;;2.70;99.90;;;;;;2114179;28;20035;-71
2021/10/10 02:46:12;;;;;;;34.40;22.08;;;2.60;99.90;;;;;;2114339;28;20027;-71
2021/10/10 02:47:14;;;;;;;33.72;22.38;;;2.60;99.90;;;;;;2114937;28;20055;-71
2021/10/10 02:48:14;;;;;;;36.00;23.33;;;2.60;99.90;;;;;;2114882;28;20043;-71
2021/10/10 02:49:15;;;;;;;37.42;23.65;;;2.60;99.90;;;;;;2115169;28;20059;-71
2021/10/10 02:50:16;;;;;;;35.95;22.98;;;2.60;99.90;;;;;;2114918;28;20030;-71
2021/10/10 02:51:16;;;;;;;36.13;24.02;;;2.60;99.90;;;;;;2114061;28;20019;-72
2021/10/10 02:52:17;;;;;;;36.40;23.77;;;2.60;99.90;;;;;;2114896;28;20065;-71
2021/10/10 02:53:18;;;;;;;35.42;22.88;;;2.50;99.90;;;;;;2114719;28;20635;-72
2021/10/10 02:54:18;;;;;;;32.95;21.60;;;2.50;99.90;;;;;;2115083;28;20479;-72
2021/10/10 02:55:19;;;;;;;34.45;21.98;;;2.50;99.90;;;;;;2115022;28;20055;-71
2021/10/10 02:56:19;;;;;;;33.42;21.23;;;2.50;99.90;;;;;;2115273;28;20475;-72
2021/10/10 02:57:20;;;;;;;34.85;22.20;;;2.50;99.90;;;;;;2115128;28;20077;-71
2021/10/10 02:58:20;;;;;;;35.40;22.00;;;2.50;99.90;;;;;;2114217;28;20027;-72
2021/10/10 02:59:21;;;;;;;39.28;23.35;;;2.50;99.90;;;;;;2114321;28;20499;-71
2021/10/10 03:00:22;;;;;;;35.70;22.73;;;2.50;99.90;;;;;;2114119;28;20478;-71
2021/10/10 03:01:22;;;;;;;33.35;21.88;;;2.50;99.90;;;;;;2113434;28;20032;-71
2021/10/10 03:02:23;;;;;;;34.58;22.48;;;2.50;99.90;;;;;;2114145;28;20036;-71
2021/10/10 03:03:24;;;;;;;32.78;21.67;;;2.50;99.90;;;;;;2105785;28;20036;-71
2021/10/10 03:04:24;;;;;;;34.33;22.33;;;2.50;99.90;;;;;;2113843;28;20047;-71
2021/10/10 03:05:25;;;;;;;35.33;21.95;;;2.50;99.90;;;;;;2114628;28;20118;-71
2021/10/10 03:06:26;;;;;;;32.25;21.08;;;2.50;99.90;;;;;;2114844;28;20035;-71
2021/10/10 03:07:27;;;;;;;33.90;21.65;;;2.50;99.90;;;;;;2114840;28;20031;-71
2021/10/10 03:08:27;;;;;;;33.22;22.17;;;2.40;99.90;;;;;;2114904;28;20024;-72
2021/10/10 03:09:28;;;;;;;34.35;22.40;;;2.40;99.90;;;;;;2105803;28;20035;-71
2021/10/10 03:10:28;;;;;;;33.90;21.88;;;2.40;99.90;;;;;;2105940;28;20032;-72
2021/10/10 03:11:29;;;;;;;36.38;22.63;;;2.40;99.90;;;;;;2114010;28;20528;-71
2021/10/10 03:12:30;;;;;;;35.10;22.63;;;2.40;99.90;;;;;;2114723;28;20039;-72
2021/10/10 03:13:32;;;;;;;35.08;21.92;;;2.40;99.90;;;;;;2114630;28;20030;-72
2021/10/10 03:14:32;;;;;;;34.17;22.23;;;2.30;99.90;;;;;;2114813;28;20034;-71
2021/10/10 03:15:39;;;;;;;33.42;22.38;;;2.40;99.90;;;;;;2114126;28;20085;-72
2021/10/10 03:16:40;;;;;;;35.17;22.40;;;2.30;99.90;;;;;;2114241;28;20047;-71
2021/10/10 03:17:40;;;;;;;33.63;21.33;;;2.30;99.90;;;;;;2114856;28;20024;-71
2021/10/10 03:18:41;;;;;;;35.60;22.58;;;2.30;99.90;;;;;;2114844;28;20076;-72
2021/10/10 03:19:42;;;;;;;34.08;22.00;;;2.30;99.90;;;;;;2114771;28;20031;-72
2021/10/10 03:20:42;;;;;;;32.90;21.85;;;2.30;99.90;;;;;;2114725;28;20528;-72
2021/10/10 03:21:43;;;;;;;34.28;21.75;;;2.30;99.90;;;;;;2113143;28;20028;-72
2021/10/10 03:22:43;;;;;;;33.42;21.48;;;2.30;99.90;;;;;;2113982;28;20036;-72
2021/10/10 03:23:44;;;;;;;33.42;21.73;;;2.30;99.90;;;;;;2114680;28;20101;-72
2021/10/10 03:24:45;;;;;;;32.17;20.63;;;2.30;99.90;;;;;;2114273;28;20078;-72
2021/10/10 03:25:45;;;;;;;34.15;20.90;;;2.30;99.90;;;;;;2114236;28;20051;-72
2021/10/10 03:26:46;;;;;;;33.28;20.48;;;2.20;99.90;;;;;;2114811;28;20506;-71
2021/10/10 03:27:46;;;;;;;32.10;20.58;;;2.30;99.90;;;;;;2114977;28;20023;-72
2021/10/10 03:28:47;;;;;;;33.20;21.13;;;2.20;99.90;;;;;;2116151;28;20061;-71
2021/10/10 03:29:47;;;;;;;32.38;20.13;;;2.20;99.90;;;;;;2115228;28;20130;-72
2021/10/10 03:30:48;;;;;;;31.95;21.27;;;2.20;99.90;;;;;;2114445;28;20039;-71
2021/10/10 03:31:49;;;;;;;30.70;20.45;;;2.20;99.90;;;;;;2113962;28;20024;-72
2021/10/10 03:32:49;;;;;;;33.25;21.00;;;2.20;99.90;;;;;;2115030;28;20035;-72
2021/10/10 03:33:50;;;;;;;31.27;20.48;;;2.20;99.90;;;;;;2114878;28;20031;-72
2021/10/10 03:34:50;;;;;;;34.03;21.73;;;2.20;99.90;;;;;;2115032;28;20030;-72
2021/10/10 03:35:51;;;;;;;33.40;20.65;;;2.20;99.90;;;;;;2115136;28;20039;-72
2021/10/10 03:36:52;;;;;;;32.30;20.40;;;2.20;99.90;;;;;;2114817;28;20020;-72
2021/10/10 03:37:53;;;;;;;31.73;20.40;;;2.20;99.90;;;;;;2114827;28;20116;-72
2021/10/10 03:38:53;;;;;;;32.17;20.50;;;2.20;99.90;;;;;;2115319;28;20064;-71
2021/10/10 03:39:55;;;;;;;32.35;20.23;;;2.20;99.90;;;;;;2114646;28;20051;-71
2021/10/10 03:40:55;;;;;;;32.45;20.88;;;2.20;99.90;;;;;;2114510;28;20399;-72
2021/10/10 03:41:56;;;;;;;33.08;20.63;;;2.20;99.90;;;;;;2113788;28;20031;-72
2021/10/10 03:42:56;;;;;;;33.95;20.35;;;2.20;99.90;;;;;;2114604;28;20066;-72
2021/10/10 03:43:57;;;;;;;33.42;21.25;;;2.20;99.90;;;;;;2113882;28;20050;-72
2021/10/10 03:44:58;;;;;;;34.05;20.73;;;2.20;99.90;;;;;;2113961;28;20028;-72
2021/10/10 03:45:59;;;;;;;33.55;20.67;;;2.20;99.90;;;;;;2114608;28;20031;-72
2021/10/10 03:46:59;;;;;;;32.63;21.13;;;2.10;99.90;;;;;;2114642;28;20031;-71
2021/10/10 03:48:00;;;;;;;31.65;20.15;;;2.10;99.90;;;;;;2115078;28;20044;-72
2021/10/10 03:49:00;;;;;;;33.53;21.10;;;2.10;99.90;;;;;;2114996;28;20036;-73
2021/10/10 03:50:01;;;;;;;33.10;20.88;;;2.10;99.90;;;;;;2115052;28;20030;-71
2021/10/10 03:51:03;;;;;;;31.23;19.95;;;2.10;99.90;;;;;;2114897;28;20657;-73
2021/10/10 03:52:04;;;;;;;30.02;19.70;;;2.10;99.90;;;;;;2114232;28;20024;-71
2021/10/10 03:53:04;;;;;;;34.15;20.75;;;2.10;99.90;;;;;;2114511;28;20431;-71
2021/10/10 03:54:38;;;;;;;33.03;20.42;;;2.00;99.90;;;;;;2114177;28;20023;-71
2021/10/10 03:56:29;;;;;;;31.35;19.98;;;2.00;99.90;;;;;;2114356;28;20066;-72
2021/10/10 03:57:29;;;;;;;33.00;19.75;;;2.00;99.90;;;;;;2114411;28;20106;-71
2021/10/10 03:58:31;;;;;;;30.83;19.73;;;2.00;99.90;;;;;;2114388;28;20032;-72
2021/10/10 03:59:31;;;;;;;29.75;19.42;;;2.00;99.90;;;;;;2114363;28;20024;-71
2021/10/10 04:00:33;;;;;;;33.03;20.88;;;2.00;99.90;;;;;;2113775;28;20012;-72
2021/10/10 04:01:34;;;;;;;29.70;19.30;;;2.00;99.90;;;;;;2112787;28;20089;-71
2021/10/10 04:02:34;;;;;;;30.58;19.65;;;2.00;99.90;;;;;;2114417;28;20107;-72
2021/10/10 04:03:37;;;;;;;33.72;20.15;;;2.10;99.90;;;;;;2114267;28;20107;-72
2021/10/10 04:04:37;;;;;;;36.00;20.13;;;2.10;99.90;;;;;;2114261;28;20142;-71
2021/10/10 04:05:43;;;;;;;31.00;19.27;;;2.00;99.90;;;;;;2114440;28;20096;-71
2021/10/10 04:06:44;;;;;;;31.42;19.70;;;2.10;99.90;;;;;;2114251;28;20047;-71
2021/10/10 04:07:45;;;;;;;29.90;18.80;;;2.10;99.90;;;;;;2114350;28;20058;-72
2021/10/10 04:08:46;;;;;;;30.98;19.38;;;2.10;99.90;;;;;;2114235;28;20028;-71
2021/10/10 04:09:47;;;;;;;30.00;18.58;;;2.10;99.90;;;;;;2114311;28;20106;-71
2021/10/10 04:10:48;;;;;;;30.30;19.33;;;2.10;99.90;;;;;;2114283;28;20027;-74
2021/10/10 04:11:48;;;;;;;30.33;19.08;;;2.10;99.90;;;;;;2113452;28;20069;-72
2021/10/10 04:12:49;;;;;;;30.23;18.85;;;2.10;99.90;;;;;;2114128;28;20465;-72
2021/10/10 04:13:50;;;;;;;31.77;19.83;;;2.10;99.90;;;;;;2114260;28;20023;-72
2021/10/10 04:14:51;;;;;;;28.05;18.42;;;2.10;99.90;;;;;;2114297;28;20053;-72
2021/10/10 04:15:52;;;;;;;30.17;19.30;;;2.10;99.90;;;;;;2114253;28;20063;-72
2021/10/10 04:16:53;;;;;;;30.63;19.27;;;2.10;99.90;;;;;;2113552;28;20032;-72
2021/10/10 04:17:53;;;;;;;29.80;19.95;;;2.10;99.90;;;;;;2114103;28;20103;-72
2021/10/10 04:18:54;;;;;;;30.85;19.50;;;2.00;99.90;;;;;;2114166;28;20024;-72
2021/10/10 04:19:54;;;;;;;32.28;19.30;;;2.00;99.90;;;;;;2114224;28;20390;-72
2021/10/10 04:20:58;;;;;;;30.45;19.48;;;2.00;99.90;;;;;;2114224;28;20517;-72
2021/10/10 04:21:59;;;;;;;30.98;20.05;;;2.00;99.90;;;;;;2113402;28;20039;-72
2021/10/10 04:22:59;;;;;;;33.15;20.80;;;2.00;99.90;;;;;;2114247;28;20038;-72
2021/10/10 04:24:00;;;;;;;30.67;19.77;;;2.00;99.90;;;;;;2114180;28;20059;-72
2021/10/10 04:25:01;;;;;;;32.80;20.45;;;2.00;99.90;;;;;;2114361;28;20028;-72
2021/10/10 04:26:01;;;;;;;31.45;19.88;;;2.00;99.90;;;;;;2114125;28;20099;-72
2021/10/10 04:27:02;;;;;;;31.75;19.95;;;2.00;99.90;;;;;;2113554;28;20081;-72
2021/10/10 04:28:03;;;;;;;30.33;19.98;;;2.00;99.90;;;;;;2105127;28;20075;-72
2021/10/10 04:29:03;;;;;;;32.63;20.98;;;2.00;99.90;;;;;;2113524;28;20060;-72
2021/10/10 04:30:13;;;;;;;31.08;20.02;;;1.90;99.90;;;;;;2114138;28;20055;-72
2021/10/10 04:31:14;;;;;;;33.25;20.73;;;2.00;99.90;;;;;;2113240;28;20024;-72
2021/10/10 04:32:14;;;;;;;30.90;19.88;;;2.00;99.90;;;;;;2113213;28;20062;-72
2021/10/10 04:33:15;;;;;;;31.73;19.98;;;2.00;99.90;;;;;;2113471;28;20051;-72
2021/10/10 04:34:15;;;;;;;31.35;19.75;;;2.00;99.90;;;;;;2113472;28;20023;-73
2021/10/10 04:35:16;;;;;;;32.65;19.92;;;2.00;99.90;;;;;;2113629;28;20027;-72
2021/10/10 04:36:17;;;;;;;30.75;19.75;;;2.00;99.90;;;;;;2114071;27;20082;-72
2021/10/10 04:37:17;;;;;;;30.55;19.40;;;2.00;99.90;;;;;;2114199;28;20027;-73
2021/10/10 04:38:18;;;;;;;33.10;19.95;;;2.00;99.90;;;;;;2114151;28;20391;-71
2021/10/10 04:39:18;;;;;;;29.33;19.50;;;2.00;99.90;;;;;;2113976;28;20019;-72
2021/10/10 04:40:19;;;;;;;33.15;19.83;;;1.90;99.90;;;;;;2114238;28;20032;-72
2021/10/10 04:41:19;;;;;;;30.92;19.65;;;1.90;99.90;;;;;;2113178;28;20024;-73
2021/10/10 04:42:20;;;;;;;29.40;19.17;;;1.90;99.90;;;;;;2114114;28;20107;-72
2021/10/10 04:43:21;;;;;;;29.75;18.63;;;1.90;99.90;;;;;;2113360;28;20044;-72
2021/10/10 04:44:22;;;;;;;30.38;19.10;;;1.90;99.90;;;;;;2113493;28;20027;-72
2021/10/10 04:45:22;;;;;;;29.23;19.65;;;1.90;99.90;;;;;;2114163;28;20032;-72
2021/10/10 04:46:23;;;;;;;28.38;18.98;;;1.90;99.90;;;;;;2114075;28;20077;-72
2021/10/10 04:47:23;;;;;;;30.75;18.60;;;1.90;99.90;;;;;;2113725;28;20402;-73
2021/10/10 04:48:24;;;;;;;28.55;19.17;;;1.90;99.90;;;;;;2113971;28;20035;-72
2021/10/10 04:49:25;;;;;;;31.75;20.20;;;1.90;99.90;;;;;;2113956;28;20027;-72
2021/10/10 04:50:25;;;;;;;30.40;19.00;;;1.90;99.90;;;;;;2113935;28;20099;-72
2021/10/10 04:51:26;;;;;;;32.47;19.90;;;1.80;99.90;;;;;;2113075;28;20036;-73
2021/10/10 04:52:26;;;;;;;30.25;19.38;;;1.80;99.90;;;;;;2113836;28;20035;-72
2021/10/10 04:53:27;;;;;;;30.42;19.60;;;1.80;99.90;;;;;;2113407;28;20368;-72
2021/10/10 04:54:28;;;;;;;31.33;20.23;;;1.80;99.90;;;;;;2113323;28;20436;-71
2021/10/10 04:55:29;;;;;;;31.70;19.65;;;1.70;99.90;;;;;;2113327;28;20471;-72
2021/10/10 04:56:30;;;;;;;32.25;20.25;;;1.80;99.90;;;;;;2113386;28;20023;-72
2021/10/10 04:57:30;;;;;;;32.35;20.20;;;1.80;99.90;;;;;;2113713;28;20386;-73
2021/10/10 04:58:31;;;;;;;33.65;20.25;;;1.70;99.90;;;;;;2114195;28;20031;-73
2021/10/10 04:59:31;;;;;;;32.85;21.00;;;1.70;99.90;;;;;;2113994;28;20633;-72
2021/10/10 05:00:32;;;;;;;33.92;20.40;;;1.70;99.90;;;;;;2113964;28;20093;-73
2021/10/10 05:01:32;;;;;;;34.20;20.27;;;1.70;99.90;;;;;;2113207;28;20031;-73
2021/10/10 05:02:33;;;;;;;29.75;19.48;;;1.70;99.90;;;;;;2113950;28;20546;-72
2021/10/10 05:03:34;;;;;;;33.63;20.20;;;1.70;99.90;;;;;;2113861;28;20042;-72
2021/10/10 05:04:34;;;;;;;30.13;20.02;;;1.70;99.90;;;;;;2113934;28;20024;-73
2021/10/10 05:05:35;;;;;;;31.83;20.25;;;1.70;99.90;;;;;;2114059;28;20038;-73
2021/10/10 05:06:36;;;;;;;35.30;21.08;;;1.70;99.90;;;;;;2114089;28;20509;-72
2021/10/10 05:07:36;;;;;;;31.50;19.65;;;1.70;99.90;;;;;;2114005;28;20055;-72
2021/10/10 05:08:37;;;;;;;30.00;19.63;;;1.70;99.90;;;;;;2113058;28;20498;-73
2021/10/10 05:09:37;;;;;;;31.38;20.35;;;1.70;99.90;;;;;;2113423;28;20424;-72
2021/10/10 05:10:38;;;;;;;32.38;20.00;;;1.70;99.90;;;;;;2113945;28;20072;-72
2021/10/10 05:11:38;;;;;;;32.65;20.13;;;1.70;99.90;;;;;;2112968;28;20035;-74
2021/10/10 05:12:39;;;;;;;32.15;19.77;;;1.70;99.90;;;;;;2113892;28;20027;-73
2021/10/10 05:13:40;;;;;;;32.00;20.05;;;1.70;99.90;;;;;;2113893;28;20031;-72